sensor_id;sensor_type;location;lat;lon;timestamp;P1;durP1;ratioP1;P2;durP2;ratioP2
79202;SDS011;68630;42.748;23.278;2023-08-17T00:02:06;21.87;;;6.33;;
79202;SDS011;68630;42.748;23.278;2023-08-17T00:07:00;12.68;;;6.17;;
79202;SDS011;68630;42.748;23.278;2023-08-17T00:09:28;9.75;;;5.28;;
79202;SDS011;68630;42.748;23.278;2023-08-17T00:11:56;10.82;;;6.53;;
79202;SDS011;68630;42.748;23.278;2023-08-17T00:14:27;11.65;;;6.17;;
79202;SDS011;68630;42.748;23.278;2023-08-17T00:16:52;17.87;;;6.03;;
79202;SDS011;68630;42.748;23.278;2023-08-17T00:19:20;11.55;;;5.90;;
79202;SDS011;68630;42.748;23.278;2023-08-17T00:21:47;15.78;;;5.67;;
79202;SDS011;68630;42.748;23.278;2023-08-17T00:24:15;12.20;;;5.67;;
79202;SDS011;68630;42.748;23.278;2023-08-17T00:26:43;10.15;;;5.78;;
79202;SDS011;68630;42.748;23.278;2023-08-17T00:29:10;15.28;;;5.62;;
79202;SDS011;68630;42.748;23.278;2023-08-17T00:31:39;22.17;;;5.65;;
79202;SDS011;68630;42.748;23.278;2023-08-17T00:34:07;12.75;;;5.70;;
79202;SDS011;68630;42.748;23.278;2023-08-17T00:36:35;16.97;;;6.33;;
79202;SDS011;68630;42.748;23.278;2023-08-17T00:39:02;16.40;;;6.37;;
79202;SDS011;68630;42.748;23.278;2023-08-17T00:41:30;20.65;;;6.12;;
79202;SDS011;68630;42.748;23.278;2023-08-17T00:43:57;12.23;;;5.67;;
79202;SDS011;68630;42.748;23.278;2023-08-17T00:46:26;14.25;;;6.45;;
79202;SDS011;68630;42.748;23.278;2023-08-17T00:48:54;20.60;;;5.80;;
79202;SDS011;68630;42.748;23.278;2023-08-17T00:51:23;15.53;;;6.20;;
79202;SDS011;68630;42.748;23.278;2023-08-17T00:53:53;12.85;;;5.62;;
79202;SDS011;68630;42.748;23.278;2023-08-17T00:56:23;11.60;;;5.85;;
79202;SDS011;68630;42.748;23.278;2023-08-17T00:58:51;19.48;;;6.35;;
79202;SDS011;68630;42.748;23.278;2023-08-17T01:01:20;16.62;;;6.97;;
79202;SDS011;68630;42.748;23.278;2023-08-17T01:03:48;17.75;;;7.45;;
79202;SDS011;68630;42.748;23.278;2023-08-17T01:06:16;11.18;;;6.75;;
79202;SDS011;68630;42.748;23.278;2023-08-17T01:08:44;16.45;;;6.62;;
79202;SDS011;68630;42.748;23.278;2023-08-17T01:14:05;10.32;;;6.00;;
79202;SDS011;68630;42.748;23.278;2023-08-17T01:16:48;12.45;;;5.45;;
79202;SDS011;68630;42.748;23.278;2023-08-17T01:19:26;15.53;;;5.70;;
79202;SDS011;68630;42.748;23.278;2023-08-17T01:21:57;24.12;;;5.17;;
79202;SDS011;68630;42.748;23.278;2023-08-17T01:24:33;13.03;;;6.42;;
79202;SDS011;68630;42.748;23.278;2023-08-17T01:27:01;10.95;;;6.08;;
79202;SDS011;68630;42.748;23.278;2023-08-17T01:29:29;12.37;;;5.40;;
79202;SDS011;68630;42.748;23.278;2023-08-17T01:32:14;13.53;;;5.45;;
79202;SDS011;68630;42.748;23.278;2023-08-17T01:34:54;15.15;;;5.47;;
79202;SDS011;68630;42.748;23.278;2023-08-17T01:37:26;13.95;;;5.75;;
79202;SDS011;68630;42.748;23.278;2023-08-17T01:39:56;15.43;;;5.45;;
79202;SDS011;68630;42.748;23.278;2023-08-17T01:42:25;14.98;;;5.37;;
79202;SDS011;68630;42.748;23.278;2023-08-17T01:44:54;17.90;;;6.03;;
79202;SDS011;68630;42.748;23.278;2023-08-17T01:47:22;10.88;;;5.70;;
79202;SDS011;68630;42.748;23.278;2023-08-17T01:49:50;10.98;;;5.62;;
79202;SDS011;68630;42.748;23.278;2023-08-17T01:52:17;12.73;;;6.08;;
79202;SDS011;68630;42.748;23.278;2023-08-17T01:54:45;16.40;;;5.80;;
79202;SDS011;68630;42.748;23.278;2023-08-17T01:57:12;16.05;;;6.08;;
79202;SDS011;68630;42.748;23.278;2023-08-17T01:59:40;9.65;;;5.50;;
79202;SDS011;68630;42.748;23.278;2023-08-17T02:02:08;12.25;;;5.87;;
79202;SDS011;68630;42.748;23.278;2023-08-17T02:04:37;13.95;;;5.60;;
79202;SDS011;68630;42.748;23.278;2023-08-17T02:07:04;15.95;;;6.65;;
79202;SDS011;68630;42.748;23.278;2023-08-17T02:09:32;13.10;;;5.65;;
79202;SDS011;68630;42.748;23.278;2023-08-17T02:14:26;20.92;;;7.12;;
79202;SDS011;68630;42.748;23.278;2023-08-17T02:16:53;16.32;;;6.70;;
79202;SDS011;68630;42.748;23.278;2023-08-17T02:19:21;24.12;;;6.90;;
79202;SDS011;68630;42.748;23.278;2023-08-17T02:21:49;11.63;;;6.47;;
79202;SDS011;68630;42.748;23.278;2023-08-17T02:24:16;10.50;;;6.55;;
79202;SDS011;68630;42.748;23.278;2023-08-17T02:26:44;12.80;;;6.85;;
79202;SDS011;68630;42.748;23.278;2023-08-17T02:31:38;14.47;;;8.33;;
79202;SDS011;68630;42.748;23.278;2023-08-17T02:34:05;16.50;;;9.20;;
79202;SDS011;68630;42.748;23.278;2023-08-17T02:36:33;16.57;;;8.03;;
79202;SDS011;68630;42.748;23.278;2023-08-17T02:41:28;11.68;;;7.00;;
79202;SDS011;68630;42.748;23.278;2023-08-17T02:43:59;23.98;;;7.42;;
79202;SDS011;68630;42.748;23.278;2023-08-17T02:46:27;11.48;;;7.00;;
79202;SDS011;68630;42.748;23.278;2023-08-17T02:48:55;18.55;;;7.12;;
79202;SDS011;68630;42.748;23.278;2023-08-17T02:53:49;13.62;;;7.00;;
79202;SDS011;68630;42.748;23.278;2023-08-17T02:56:16;19.70;;;6.33;;
79202;SDS011;68630;42.748;23.278;2023-08-17T02:58:44;11.18;;;6.65;;
79202;SDS011;68630;42.748;23.278;2023-08-17T03:01:11;15.63;;;6.53;;
79202;SDS011;68630;42.748;23.278;2023-08-17T03:03:39;15.68;;;6.85;;
79202;SDS011;68630;42.748;23.278;2023-08-17T03:06:07;10.78;;;6.35;;
79202;SDS011;68630;42.748;23.278;2023-08-17T03:08:35;15.28;;;6.80;;
79202;SDS011;68630;42.748;23.278;2023-08-17T03:11:02;17.15;;;7.17;;
79202;SDS011;68630;42.748;23.278;2023-08-17T03:13:32;14.23;;;6.58;;
79202;SDS011;68630;42.748;23.278;2023-08-17T03:15:59;11.30;;;6.28;;
79202;SDS011;68630;42.748;23.278;2023-08-17T03:18:27;11.85;;;6.28;;
79202;SDS011;68630;42.748;23.278;2023-08-17T03:20:54;16.23;;;6.87;;
79202;SDS011;68630;42.748;23.278;2023-08-17T03:23:22;14.00;;;6.40;;
79202;SDS011;68630;42.748;23.278;2023-08-17T03:25:52;11.45;;;6.75;;
79202;SDS011;68630;42.748;23.278;2023-08-17T03:28:20;25.65;;;7.40;;
79202;SDS011;68630;42.748;23.278;2023-08-17T03:30:48;23.52;;;6.05;;
79202;SDS011;68630;42.748;23.278;2023-08-17T03:33:15;14.58;;;6.87;;
79202;SDS011;68630;42.748;23.278;2023-08-17T03:35:43;13.20;;;5.90;;
79202;SDS011;68630;42.748;23.278;2023-08-17T03:38:10;17.23;;;6.08;;
79202;SDS011;68630;42.748;23.278;2023-08-17T03:40:38;15.32;;;6.78;;
79202;SDS011;68630;42.748;23.278;2023-08-17T03:43:06;21.68;;;7.28;;
79202;SDS011;68630;42.748;23.278;2023-08-17T03:45:34;19.70;;;9.00;;
79202;SDS011;68630;42.748;23.278;2023-08-17T03:48:01;29.60;;;7.53;;
79202;SDS011;68630;42.748;23.278;2023-08-17T03:50:29;20.02;;;8.00;;
79202;SDS011;68630;42.748;23.278;2023-08-17T03:52:57;13.70;;;6.80;;
79202;SDS011;68630;42.748;23.278;2023-08-17T03:57:51;20.75;;;6.72;;
79202;SDS011;68630;42.748;23.278;2023-08-17T04:00:19;19.27;;;6.70;;
79202;SDS011;68630;42.748;23.278;2023-08-17T04:02:46;17.98;;;6.80;;
79202;SDS011;68630;42.748;23.278;2023-08-17T04:05:14;15.18;;;6.78;;
79202;SDS011;68630;42.748;23.278;2023-08-17T04:07:41;20.48;;;6.62;;
79202;SDS011;68630;42.748;23.278;2023-08-17T04:10:09;24.60;;;6.08;;
79202;SDS011;68630;42.748;23.278;2023-08-17T04:12:36;20.37;;;7.10;;
79202;SDS011;68630;42.748;23.278;2023-08-17T04:17:31;15.58;;;6.25;;
79202;SDS011;68630;42.748;23.278;2023-08-17T04:19:58;22.10;;;6.20;;
79202;SDS011;68630;42.748;23.278;2023-08-17T04:22:26;18.30;;;6.00;;
79202;SDS011;68630;42.748;23.278;2023-08-17T04:24:53;15.70;;;5.65;;
79202;SDS011;68630;42.748;23.278;2023-08-17T04:27:21;18.27;;;5.72;;
79202;SDS011;68630;42.748;23.278;2023-08-17T04:29:48;14.20;;;5.67;;
79202;SDS011;68630;42.748;23.278;2023-08-17T04:32:16;18.73;;;5.03;;
79202;SDS011;68630;42.748;23.278;2023-08-17T04:34:44;15.13;;;5.47;;
79202;SDS011;68630;42.748;23.278;2023-08-17T04:37:14;40.65;;;6.08;;
79202;SDS011;68630;42.748;23.278;2023-08-17T04:39:41;30.85;;;5.40;;
79202;SDS011;68630;42.748;23.278;2023-08-17T04:42:09;30.88;;;5.70;;
79202;SDS011;68630;42.748;23.278;2023-08-17T04:44:37;18.70;;;5.05;;
79202;SDS011;68630;42.748;23.278;2023-08-17T04:47:04;16.10;;;4.53;;
79202;SDS011;68630;42.748;23.278;2023-08-17T04:49:32;14.87;;;5.05;;
79202;SDS011;68630;42.748;23.278;2023-08-17T04:52:00;27.85;;;5.55;;
79202;SDS011;68630;42.748;23.278;2023-08-17T04:54:28;14.30;;;4.40;;
79202;SDS011;68630;42.748;23.278;2023-08-17T04:56:55;20.50;;;4.72;;
79202;SDS011;68630;42.748;23.278;2023-08-17T04:59:23;12.95;;;4.62;;
79202;SDS011;68630;42.748;23.278;2023-08-17T05:01:50;23.95;;;4.70;;
79202;SDS011;68630;42.748;23.278;2023-08-17T05:04:19;24.35;;;5.03;;
79202;SDS011;68630;42.748;23.278;2023-08-17T05:06:47;35.05;;;5.20;;
79202;SDS011;68630;42.748;23.278;2023-08-17T05:09:14;20.52;;;4.78;;
79202;SDS011;68630;42.748;23.278;2023-08-17T05:11:42;32.93;;;4.85;;
79202;SDS011;68630;42.748;23.278;2023-08-17T05:14:10;19.10;;;4.15;;
79202;SDS011;68630;42.748;23.278;2023-08-17T05:16:38;24.47;;;4.80;;
79202;SDS011;68630;42.748;23.278;2023-08-17T05:19:06;26.10;;;5.25;;
79202;SDS011;68630;42.748;23.278;2023-08-17T05:21:34;11.70;;;3.67;;
79202;SDS011;68630;42.748;23.278;2023-08-17T05:24:02;32.13;;;4.58;;
79202;SDS011;68630;42.748;23.278;2023-08-17T05:26:30;19.10;;;4.40;;
79202;SDS011;68630;42.748;23.278;2023-08-17T05:28:58;34.20;;;4.92;;
79202;SDS011;68630;42.748;23.278;2023-08-17T05:31:26;16.30;;;4.67;;
79202;SDS011;68630;42.748;23.278;2023-08-17T05:33:53;14.60;;;3.62;;
79202;SDS011;68630;42.748;23.278;2023-08-17T05:36:20;19.35;;;3.72;;
79202;SDS011;68630;42.748;23.278;2023-08-17T05:38:48;13.18;;;3.65;;
79202;SDS011;68630;42.748;23.278;2023-08-17T05:41:15;10.60;;;4.00;;
79202;SDS011;68630;42.748;23.278;2023-08-17T05:43:43;30.02;;;4.40;;
79202;SDS011;68630;42.748;23.278;2023-08-17T05:46:11;20.95;;;4.58;;
79202;SDS011;68630;42.748;23.278;2023-08-17T05:48:38;13.65;;;4.92;;
79202;SDS011;68630;42.748;23.278;2023-08-17T05:51:06;14.30;;;4.30;;
79202;SDS011;68630;42.748;23.278;2023-08-17T05:53:34;16.42;;;4.72;;
79202;SDS011;68630;42.748;23.278;2023-08-17T05:56:01;14.23;;;4.87;;
79202;SDS011;68630;42.748;23.278;2023-08-17T05:58:29;14.40;;;5.00;;
79202;SDS011;68630;42.748;23.278;2023-08-17T06:01:03;6.75;;;4.40;;
79202;SDS011;68630;42.748;23.278;2023-08-17T06:03:33;11.97;;;5.40;;
79202;SDS011;68630;42.748;23.278;2023-08-17T06:06:04;15.13;;;5.47;;
79202;SDS011;68630;42.748;23.278;2023-08-17T06:08:32;21.23;;;5.28;;
79202;SDS011;68630;42.748;23.278;2023-08-17T06:10:59;11.97;;;4.90;;
79202;SDS011;68630;42.748;23.278;2023-08-17T06:13:27;17.52;;;5.15;;
79202;SDS011;68630;42.748;23.278;2023-08-17T06:16:00;15.13;;;5.00;;
79202;SDS011;68630;42.748;23.278;2023-08-17T06:18:24;10.85;;;4.70;;
79202;SDS011;68630;42.748;23.278;2023-08-17T06:20:52;22.22;;;6.03;;
79202;SDS011;68630;42.748;23.278;2023-08-17T06:23:20;14.03;;;5.35;;
79202;SDS011;68630;42.748;23.278;2023-08-17T06:25:47;17.82;;;5.03;;
79202;SDS011;68630;42.748;23.278;2023-08-17T06:28:15;12.23;;;5.00;;
79202;SDS011;68630;42.748;23.278;2023-08-17T06:30:45;16.02;;;5.53;;
79202;SDS011;68630;42.748;23.278;2023-08-17T06:33:13;15.23;;;4.80;;
79202;SDS011;68630;42.748;23.278;2023-08-17T06:35:40;18.32;;;5.20;;
79202;SDS011;68630;42.748;23.278;2023-08-17T06:38:08;12.28;;;5.10;;
79202;SDS011;68630;42.748;23.278;2023-08-17T06:40:35;11.35;;;5.08;;
79202;SDS011;68630;42.748;23.278;2023-08-17T06:43:04;16.07;;;5.67;;
79202;SDS011;68630;42.748;23.278;2023-08-17T06:45:32;14.55;;;4.90;;
79202;SDS011;68630;42.748;23.278;2023-08-17T06:48:00;18.92;;;5.47;;
79202;SDS011;68630;42.748;23.278;2023-08-17T06:50:27;21.40;;;5.20;;
79202;SDS011;68630;42.748;23.278;2023-08-17T06:52:55;13.30;;;5.42;;
79202;SDS011;68630;42.748;23.278;2023-08-17T06:55:22;15.53;;;5.60;;
79202;SDS011;68630;42.748;23.278;2023-08-17T06:57:50;20.95;;;5.75;;
79202;SDS011;68630;42.748;23.278;2023-08-17T07:00:18;20.17;;;5.22;;
79202;SDS011;68630;42.748;23.278;2023-08-17T07:02:49;16.15;;;4.83;;
79202;SDS011;68630;42.748;23.278;2023-08-17T07:05:17;9.50;;;4.75;;
79202;SDS011;68630;42.748;23.278;2023-08-17T07:07:45;11.75;;;4.53;;
79202;SDS011;68630;42.748;23.278;2023-08-17T07:10:12;13.30;;;4.95;;
79202;SDS011;68630;42.748;23.278;2023-08-17T07:12:40;9.98;;;4.78;;
79202;SDS011;68630;42.748;23.278;2023-08-17T07:15:08;13.40;;;4.60;;
79202;SDS011;68630;42.748;23.278;2023-08-17T07:17:35;12.47;;;4.20;;
79202;SDS011;68630;42.748;23.278;2023-08-17T07:20:03;16.32;;;4.58;;
79202;SDS011;68630;42.748;23.278;2023-08-17T07:22:33;13.72;;;3.80;;
79202;SDS011;68630;42.748;23.278;2023-08-17T07:25:00;11.45;;;4.20;;
79202;SDS011;68630;42.748;23.278;2023-08-17T07:27:29;8.38;;;3.90;;
79202;SDS011;68630;42.748;23.278;2023-08-17T07:29:57;15.70;;;3.98;;
79202;SDS011;68630;42.748;23.278;2023-08-17T07:32:24;12.33;;;4.33;;
79202;SDS011;68630;42.748;23.278;2023-08-17T07:34:51;23.18;;;5.45;;
79202;SDS011;68630;42.748;23.278;2023-08-17T07:37:19;9.18;;;4.55;;
79202;SDS011;68630;42.748;23.278;2023-08-17T07:39:48;13.62;;;4.30;;
79202;SDS011;68630;42.748;23.278;2023-08-17T07:42:16;13.38;;;4.35;;
79202;SDS011;68630;42.748;23.278;2023-08-17T07:44:44;9.43;;;3.60;;
79202;SDS011;68630;42.748;23.278;2023-08-17T07:47:11;13.08;;;3.75;;
79202;SDS011;68630;42.748;23.278;2023-08-17T07:49:39;10.48;;;3.72;;
79202;SDS011;68630;42.748;23.278;2023-08-17T07:52:06;9.60;;;4.70;;
79202;SDS011;68630;42.748;23.278;2023-08-17T07:54:34;12.45;;;4.35;;
79202;SDS011;68630;42.748;23.278;2023-08-17T07:57:02;11.75;;;4.83;;
79202;SDS011;68630;42.748;23.278;2023-08-17T07:59:29;14.68;;;3.72;;
79202;SDS011;68630;42.748;23.278;2023-08-17T08:01:57;7.03;;;4.00;;
79202;SDS011;68630;42.748;23.278;2023-08-17T08:04:24;14.78;;;4.67;;
79202;SDS011;68630;42.748;23.278;2023-08-17T08:06:52;8.30;;;3.58;;
79202;SDS011;68630;42.748;23.278;2023-08-17T08:09:20;13.25;;;3.67;;
79202;SDS011;68630;42.748;23.278;2023-08-17T08:11:48;9.48;;;3.33;;
79202;SDS011;68630;42.748;23.278;2023-08-17T08:14:15;17.75;;;4.20;;
79202;SDS011;68630;42.748;23.278;2023-08-17T08:16:43;11.05;;;3.17;;
79202;SDS011;68630;42.748;23.278;2023-08-17T08:19:12;10.68;;;3.55;;
79202;SDS011;68630;42.748;23.278;2023-08-17T08:21:40;6.55;;;3.00;;
79202;SDS011;68630;42.748;23.278;2023-08-17T08:24:07;12.05;;;2.75;;
79202;SDS011;68630;42.748;23.278;2023-08-17T08:26:35;10.63;;;2.92;;
79202;SDS011;68630;42.748;23.278;2023-08-17T08:29:03;6.85;;;2.80;;
79202;SDS011;68630;42.748;23.278;2023-08-17T08:31:30;7.42;;;2.70;;
79202;SDS011;68630;42.748;23.278;2023-08-17T08:33:58;15.40;;;3.50;;
79202;SDS011;68630;42.748;23.278;2023-08-17T08:36:25;11.75;;;3.10;;
79202;SDS011;68630;42.748;23.278;2023-08-17T08:38:53;9.00;;;2.60;;
79202;SDS011;68630;42.748;23.278;2023-08-17T08:41:21;4.50;;;2.65;;
79202;SDS011;68630;42.748;23.278;2023-08-17T08:43:49;12.40;;;2.83;;
79202;SDS011;68630;42.748;23.278;2023-08-17T08:46:17;15.03;;;3.20;;
79202;SDS011;68630;42.748;23.278;2023-08-17T08:48:45;9.73;;;2.62;;
79202;SDS011;68630;42.748;23.278;2023-08-17T08:51:14;12.93;;;3.10;;
79202;SDS011;68630;42.748;23.278;2023-08-17T08:53:45;14.05;;;3.08;;
79202;SDS011;68630;42.748;23.278;2023-08-17T08:56:15;10.85;;;3.02;;
79202;SDS011;68630;42.748;23.278;2023-08-17T08:58:44;8.88;;;2.75;;
79202;SDS011;68630;42.748;23.278;2023-08-17T09:01:13;13.45;;;3.20;;
79202;SDS011;68630;42.748;23.278;2023-08-17T09:03:43;8.60;;;2.70;;
79202;SDS011;68630;42.748;23.278;2023-08-17T09:06:13;12.18;;;3.00;;
79202;SDS011;68630;42.748;23.278;2023-08-17T09:08:42;13.22;;;2.77;;
79202;SDS011;68630;42.748;23.278;2023-08-17T09:11:11;15.88;;;3.10;;
79202;SDS011;68630;42.748;23.278;2023-08-17T09:13:39;7.20;;;2.58;;
79202;SDS011;68630;42.748;23.278;2023-08-17T09:16:06;17.32;;;3.35;;
79202;SDS011;68630;42.748;23.278;2023-08-17T09:18:34;7.28;;;2.85;;
79202;SDS011;68630;42.748;23.278;2023-08-17T09:21:02;7.05;;;2.67;;
79202;SDS011;68630;42.748;23.278;2023-08-17T09:23:29;9.88;;;2.67;;
79202;SDS011;68630;42.748;23.278;2023-08-17T09:25:57;7.85;;;2.22;;
79202;SDS011;68630;42.748;23.278;2023-08-17T09:28:26;7.00;;;2.10;;
79202;SDS011;68630;42.748;23.278;2023-08-17T09:30:57;11.00;;;2.40;;
79202;SDS011;68630;42.748;23.278;2023-08-17T09:33:30;4.28;;;2.12;;
79202;SDS011;68630;42.748;23.278;2023-08-17T09:35:59;13.65;;;2.60;;
79202;SDS011;68630;42.748;23.278;2023-08-17T09:38:27;6.47;;;2.00;;
79202;SDS011;68630;42.748;23.278;2023-08-17T09:40:55;4.85;;;2.37;;
79202;SDS011;68630;42.748;23.278;2023-08-17T09:43:24;15.75;;;2.92;;
79202;SDS011;68630;42.748;23.278;2023-08-17T09:45:56;6.53;;;2.77;;
79202;SDS011;68630;42.748;23.278;2023-08-17T09:48:24;7.83;;;2.35;;
79202;SDS011;68630;42.748;23.278;2023-08-17T09:50:53;5.95;;;2.30;;
79202;SDS011;68630;42.748;23.278;2023-08-17T09:53:24;7.42;;;2.45;;
79202;SDS011;68630;42.748;23.278;2023-08-17T09:55:51;8.70;;;2.55;;
79202;SDS011;68630;42.748;23.278;2023-08-17T09:58:23;8.68;;;2.58;;
79202;SDS011;68630;42.748;23.278;2023-08-17T10:00:51;10.28;;;2.33;;
79202;SDS011;68630;42.748;23.278;2023-08-17T10:03:19;12.53;;;2.10;;
79202;SDS011;68630;42.748;23.278;2023-08-17T10:05:52;8.13;;;2.40;;
79202;SDS011;68630;42.748;23.278;2023-08-17T10:08:20;5.80;;;2.50;;
79202;SDS011;68630;42.748;23.278;2023-08-17T10:10:49;8.43;;;2.42;;
79202;SDS011;68630;42.748;23.278;2023-08-17T10:13:23;7.05;;;2.15;;
79202;SDS011;68630;42.748;23.278;2023-08-17T10:18:35;33.05;;;3.60;;
79202;SDS011;68630;42.748;23.278;2023-08-17T10:21:06;6.58;;;2.77;;
79202;SDS011;68630;42.748;23.278;2023-08-17T10:23:33;15.38;;;3.25;;
79202;SDS011;68630;42.748;23.278;2023-08-17T10:26:01;6.87;;;2.87;;
79202;SDS011;68630;42.748;23.278;2023-08-17T10:28:31;7.37;;;2.80;;
79202;SDS011;68630;42.748;23.278;2023-08-17T10:31:00;5.85;;;2.52;;
79202;SDS011;68630;42.748;23.278;2023-08-17T10:33:28;6.78;;;2.90;;
79202;SDS011;68630;42.748;23.278;2023-08-17T10:35:56;7.45;;;2.80;;
79202;SDS011;68630;42.748;23.278;2023-08-17T10:38:25;8.60;;;2.45;;
79202;SDS011;68630;42.748;23.278;2023-08-17T10:41:14;10.58;;;2.67;;
79202;SDS011;68630;42.748;23.278;2023-08-17T10:43:54;13.88;;;2.98;;
79202;SDS011;68630;42.748;23.278;2023-08-17T10:46:32;6.80;;;2.55;;
79202;SDS011;68630;42.748;23.278;2023-08-17T10:49:06;9.93;;;3.00;;
79202;SDS011;68630;42.748;23.278;2023-08-17T10:51:36;10.88;;;2.72;;
79202;SDS011;68630;42.748;23.278;2023-08-17T10:54:03;4.15;;;2.12;;
79202;SDS011;68630;42.748;23.278;2023-08-17T10:56:32;9.53;;;2.52;;
79202;SDS011;68630;42.748;23.278;2023-08-17T10:59:00;5.97;;;2.75;;
79202;SDS011;68630;42.748;23.278;2023-08-17T11:01:32;12.33;;;4.33;;
79202;SDS011;68630;42.748;23.278;2023-08-17T11:04:10;8.75;;;3.25;;
79202;SDS011;68630;42.748;23.278;2023-08-17T11:06:39;16.87;;;3.80;;
79202;SDS011;68630;42.748;23.278;2023-08-17T11:09:09;8.28;;;3.90;;
79202;SDS011;68630;42.748;23.278;2023-08-17T11:11:37;12.13;;;3.37;;
79202;SDS011;68630;42.748;23.278;2023-08-17T11:14:05;12.53;;;3.47;;
79202;SDS011;68630;42.748;23.278;2023-08-17T11:16:32;19.82;;;4.37;;
79202;SDS011;68630;42.748;23.278;2023-08-17T11:19:00;14.80;;;3.75;;
79202;SDS011;68630;42.748;23.278;2023-08-17T11:21:28;8.13;;;3.55;;
79202;SDS011;68630;42.748;23.278;2023-08-17T11:23:56;7.65;;;3.35;;
79202;SDS011;68630;42.748;23.278;2023-08-17T11:26:23;6.72;;;3.08;;
79202;SDS011;68630;42.748;23.278;2023-08-17T11:28:53;8.65;;;3.15;;
79202;SDS011;68630;42.748;23.278;2023-08-17T11:31:20;7.37;;;3.92;;
79202;SDS011;68630;42.748;23.278;2023-08-17T11:33:48;6.70;;;3.33;;
79202;SDS011;68630;42.748;23.278;2023-08-17T11:36:16;6.62;;;3.00;;
79202;SDS011;68630;42.748;23.278;2023-08-17T11:38:43;6.15;;;3.72;;
79202;SDS011;68630;42.748;23.278;2023-08-17T11:41:12;9.73;;;4.03;;
79202;SDS011;68630;42.748;23.278;2023-08-17T11:43:42;9.78;;;3.65;;
79202;SDS011;68630;42.748;23.278;2023-08-17T11:46:11;12.45;;;3.80;;
79202;SDS011;68630;42.748;23.278;2023-08-17T11:48:39;10.25;;;3.72;;
79202;SDS011;68630;42.748;23.278;2023-08-17T11:51:06;5.90;;;2.95;;
79202;SDS011;68630;42.748;23.278;2023-08-17T11:53:39;8.68;;;3.80;;
79202;SDS011;68630;42.748;23.278;2023-08-17T11:56:05;16.93;;;2.95;;
79202;SDS011;68630;42.748;23.278;2023-08-17T11:58:40;9.85;;;3.87;;
79202;SDS011;68630;42.748;23.278;2023-08-17T12:01:09;7.37;;;3.50;;
79202;SDS011;68630;42.748;23.278;2023-08-17T12:03:38;9.60;;;3.50;;
79202;SDS011;68630;42.748;23.278;2023-08-17T12:06:07;9.73;;;3.60;;
79202;SDS011;68630;42.748;23.278;2023-08-17T12:08:36;9.73;;;3.50;;
79202;SDS011;68630;42.748;23.278;2023-08-17T12:11:03;9.75;;;3.72;;
79202;SDS011;68630;42.748;23.278;2023-08-17T12:13:35;15.90;;;3.75;;
79202;SDS011;68630;42.748;23.278;2023-08-17T12:16:03;9.55;;;3.65;;
79202;SDS011;68630;42.748;23.278;2023-08-17T12:18:33;10.58;;;3.40;;
79202;SDS011;68630;42.748;23.278;2023-08-17T12:21:03;5.97;;;3.40;;
79202;SDS011;68630;42.748;23.278;2023-08-17T12:23:32;11.08;;;3.05;;
79202;SDS011;68630;42.748;23.278;2023-08-17T12:25:59;13.48;;;3.02;;
79202;SDS011;68630;42.748;23.278;2023-08-17T12:28:27;7.30;;;3.25;;
79202;SDS011;68630;42.748;23.278;2023-08-17T12:31:02;8.20;;;3.20;;
79202;SDS011;68630;42.748;23.278;2023-08-17T12:33:29;12.13;;;3.52;;
79202;SDS011;68630;42.748;23.278;2023-08-17T12:35:57;12.13;;;3.55;;
79202;SDS011;68630;42.748;23.278;2023-08-17T12:38:24;11.85;;;3.65;;
79202;SDS011;68630;42.748;23.278;2023-08-17T12:40:54;23.42;;;3.90;;
79202;SDS011;68630;42.748;23.278;2023-08-17T12:43:22;10.00;;;3.10;;
79202;SDS011;68630;42.748;23.278;2023-08-17T12:45:49;9.73;;;3.77;;
79202;SDS011;68630;42.748;23.278;2023-08-17T12:48:17;13.60;;;4.05;;
79202;SDS011;68630;42.748;23.278;2023-08-17T12:50:44;15.50;;;3.62;;
79202;SDS011;68630;42.748;23.278;2023-08-17T12:53:12;14.95;;;3.67;;
79202;SDS011;68630;42.748;23.278;2023-08-17T12:55:39;9.43;;;3.08;;
79202;SDS011;68630;42.748;23.278;2023-08-17T12:58:07;9.18;;;3.15;;
79202;SDS011;68630;42.748;23.278;2023-08-17T13:00:35;9.28;;;3.10;;
79202;SDS011;68630;42.748;23.278;2023-08-17T13:03:03;7.55;;;3.37;;
79202;SDS011;68630;42.748;23.278;2023-08-17T13:05:30;10.48;;;3.40;;
79202;SDS011;68630;42.748;23.278;2023-08-17T13:07:59;8.70;;;2.75;;
79202;SDS011;68630;42.748;23.278;2023-08-17T13:10:27;10.58;;;3.67;;
79202;SDS011;68630;42.748;23.278;2023-08-17T13:12:55;11.30;;;3.15;;
79202;SDS011;68630;42.748;23.278;2023-08-17T13:15:24;9.85;;;3.70;;
79202;SDS011;68630;42.748;23.278;2023-08-17T13:17:52;7.37;;;2.98;;
79202;SDS011;68630;42.748;23.278;2023-08-17T13:20:19;7.87;;;3.42;;
79202;SDS011;68630;42.748;23.278;2023-08-17T13:22:47;5.58;;;3.10;;
79202;SDS011;68630;42.748;23.278;2023-08-17T13:25:15;12.28;;;3.77;;
79202;SDS011;68630;42.748;23.278;2023-08-17T13:27:42;11.35;;;3.60;;
79202;SDS011;68630;42.748;23.278;2023-08-17T13:30:10;13.70;;;3.58;;
79202;SDS011;68630;42.748;23.278;2023-08-17T13:32:38;7.78;;;3.08;;
79202;SDS011;68630;42.748;23.278;2023-08-17T13:35:06;8.70;;;3.05;;
79202;SDS011;68630;42.748;23.278;2023-08-17T13:37:36;5.97;;;3.00;;
79202;SDS011;68630;42.748;23.278;2023-08-17T13:40:04;5.70;;;2.85;;
79202;SDS011;68630;42.748;23.278;2023-08-17T13:42:33;7.72;;;3.40;;
79202;SDS011;68630;42.748;23.278;2023-08-17T13:45:01;11.35;;;3.27;;
79202;SDS011;68630;42.748;23.278;2023-08-17T13:47:29;17.05;;;3.22;;
79202;SDS011;68630;42.748;23.278;2023-08-17T13:49:56;9.73;;;3.08;;
79202;SDS011;68630;42.748;23.278;2023-08-17T13:52:24;6.42;;;3.05;;
79202;SDS011;68630;42.748;23.278;2023-08-17T13:54:51;7.25;;;3.30;;
79202;SDS011;68630;42.748;23.278;2023-08-17T13:57:19;7.03;;;3.05;;
79202;SDS011;68630;42.748;23.278;2023-08-17T13:59:47;12.47;;;3.20;;
79202;SDS011;68630;42.748;23.278;2023-08-17T14:02:14;3.02;;;2.70;;
79202;SDS011;68630;42.748;23.278;2023-08-17T14:04:42;3.92;;;2.70;;
79202;SDS011;68630;42.748;23.278;2023-08-17T14:07:09;12.55;;;2.92;;
79202;SDS011;68630;42.748;23.278;2023-08-17T14:09:37;8.30;;;2.90;;
79202;SDS011;68630;42.748;23.278;2023-08-17T14:12:04;14.87;;;2.85;;
79202;SDS011;68630;42.748;23.278;2023-08-17T14:14:32;6.42;;;2.90;;
79202;SDS011;68630;42.748;23.278;2023-08-17T14:17:00;9.48;;;3.00;;
79202;SDS011;68630;42.748;23.278;2023-08-17T14:19:28;13.10;;;2.70;;
79202;SDS011;68630;42.748;23.278;2023-08-17T14:21:57;11.83;;;3.47;;
79202;SDS011;68630;42.748;23.278;2023-08-17T14:24:26;8.60;;;3.25;;
79202;SDS011;68630;42.748;23.278;2023-08-17T14:26:54;13.80;;;3.30;;
79202;SDS011;68630;42.748;23.278;2023-08-17T14:29:23;11.68;;;3.02;;
79202;SDS011;68630;42.748;23.278;2023-08-17T14:31:51;8.58;;;2.85;;
79202;SDS011;68630;42.748;23.278;2023-08-17T14:34:18;12.43;;;3.10;;
79202;SDS011;68630;42.748;23.278;2023-08-17T14:36:47;8.45;;;3.42;;
79202;SDS011;68630;42.748;23.278;2023-08-17T14:39:14;13.48;;;3.25;;
79202;SDS011;68630;42.748;23.278;2023-08-17T14:41:42;8.83;;;3.10;;
79202;SDS011;68630;42.748;23.278;2023-08-17T14:44:09;4.80;;;2.72;;
79202;SDS011;68630;42.748;23.278;2023-08-17T14:46:37;9.38;;;2.65;;
79202;SDS011;68630;42.748;23.278;2023-08-17T14:49:07;4.50;;;3.00;;
79202;SDS011;68630;42.748;23.278;2023-08-17T14:51:38;8.88;;;2.92;;
79202;SDS011;68630;42.748;23.278;2023-08-17T14:54:08;2.83;;;2.40;;
79202;SDS011;68630;42.748;23.278;2023-08-17T14:56:37;5.50;;;2.80;;